Time;durP1;ratioP1;P1;durP2;ratioP2;P2;SDS_P1;SDS_P2;PMS_P1;PMS_P2;Temp;Humidity;BMP_temperature;BMP_pressure;BME280_temperature;BME280_humidity;BME280_pressure;Samples;Min_cycle;Max_cycle;Signal;HPM_P1;HPM_P2
2022/11/28 00:00:00;;;;;;;;;;;;;;;6.70;82.03;100350.63;346460;28;1374;-75
2022/11/28 00:00:11;;;;;;;;;;;;;;;6.68;82.39;100345.47;347362;28;1610;-75
2022/11/28 00:00:21;;;;;;;;;;;;;;;6.70;82.39;100341.97;347246;28;856;-74
2022/11/28 00:00:31;;;;;;;;;;;;;;;6.70;82.27;100350.63;347855;28;979;-74
2022/11/28 00:00:41;;;;;;;;;;;;;;;6.69;82.56;100343.72;348176;28;891;-74
2022/11/28 00:00:52;;;;;;;;;;;;;;;6.70;82.48;100350.63;349220;28;1453;-74
2022/11/28 00:01:03;;;;;;;;;;;;;;;6.70;82.94;100342.84;350499;28;1187;-74
2022/11/28 00:01:15;;;;;;;;;;;;;;;6.73;82.68;100352.34;347110;28;1557;-74
2022/11/28 00:01:26;;;;;;;;;;;;;;;6.75;82.40;100350.59;346435;28;1340;-74
2022/11/28 00:01:41;;;;;;;;;;;;;;;6.75;82.98;100350.59;347951;28;1008;-74
2022/11/28 00:01:52;;;;;;;;;;;;;;;6.75;83.33;100348.84;345273;28;840;-75
2022/11/28 00:02:02;;;;;;;;;;;;;;;6.76;83.35;100345.34;346218;28;1093;-75
2022/11/28 00:02:12;;;;;;;;;;;;;;;6.78;83.74;100345.34;347913;28;935;-75
2022/11/28 00:02:22;;;;;;;;;;;;;;;6.78;83.43;100347.94;347893;28;1580;-75
2022/11/28 00:02:32;;;;;;;;;;;;;;;6.77;83.29;100336.69;345195;28;1306;-75
2022/11/28 00:02:43;;;;;;;;;;;;;;;6.77;83.48;100347.06;346226;28;1420;-74
2022/11/28 00:02:53;;;;;;;;;;;;;;;6.76;83.65;100349.69;342501;28;1216;-74
2022/11/28 00:03:03;;;;;;;;;;;;;;;6.74;83.22;100341.91;346120;28;1768;-74
2022/11/28 00:03:13;;;;;;;;;;;;;;;6.73;83.17;100345.41;347574;28;1422;-74
2022/11/28 00:03:24;;;;;;;;;;;;;;;6.73;83.36;100347.13;349332;28;884;-74
2022/11/28 00:03:34;;;;;;;;;;;;;;;6.72;83.18;100348.88;343849;28;868;-74
2022/11/28 00:03:44;;;;;;;;;;;;;;;6.71;83.67;100347.16;341679;28;1244;-77
2022/11/28 00:03:55;;;;;;;;;;;;;;;6.71;83.27;100339.34;340771;29;1547;-77
2022/11/28 00:04:05;;;;;;;;;;;;;;;6.71;83.36;100341.09;337213;29;1197;-74
2022/11/28 00:04:15;;;;;;;;;;;;;;;6.71;83.21;100344.56;337285;29;1911;-74
2022/11/28 00:04:26;;;;;;;;;;;;;;;6.70;83.43;100349.78;338650;29;1236;-74
2022/11/28 00:04:36;;;;;;;;;;;;;;;6.70;83.69;100340.25;339726;29;1749;-74
2022/11/28 00:04:49;;;;;;;;;;;;;;;6.71;83.52;100341.97;339682;29;1318;-74
2022/11/28 00:04:59;;;;;;;;;;;;;;;6.73;83.42;100344.53;339058;29;1394;-74
2022/11/28 00:05:09;;;;;;;;;;;;;;;6.75;83.60;100348.84;335813;29;1790;-74
2022/11/28 00:05:20;;;;;;;;;;;;;;;6.76;83.09;100345.34;332167;29;1187;-76
2022/11/28 00:05:30;;;;;;;;;;;;;;;6.77;83.25;100341.88;331223;29;1833;-75
2022/11/28 00:05:40;;;;;;;;;;;;;;;6.78;83.71;100341.00;330890;29;1385;-74
2022/11/28 00:05:50;;;;;;;;;;;;;;;6.79;83.74;100345.31;333255;29;2181;-74
2022/11/28 00:06:02;;;;;;;;;;;;;;;6.80;83.85;100339.22;331304;29;1959;-74
2022/11/28 00:06:12;;;;;;;;;;;;;;;6.82;83.98;100345.28;330621;29;2078;-74
2022/11/28 00:06:22;;;;;;;;;;;;;;;6.83;83.61;100347.00;327719;30;1361;-74
2022/11/28 00:06:34;;;;;;;;;;;;;;;6.83;83.89;100344.41;332505;29;1535;-74
2022/11/28 00:06:45;;;;;;;;;;;;;;;6.85;83.98;100340.03;330161;29;772;-74
2022/11/28 00:06:55;;;;;;;;;;;;;;;6.85;83.68;100345.25;326068;29;4843;-74
2022/11/28 00:07:06;;;;;;;;;;;;;;;6.88;84.08;100344.34;329368;29;3497;-75
2022/11/28 00:07:16;;;;;;;;;;;;;;;6.88;84.22;100344.34;329296;29;1849;-75
2022/11/28 00:07:26;;;;;;;;;;;;;;;6.88;84.13;100344.34;324913;30;2063;-75
2022/11/28 00:07:36;;;;;;;;;;;;;;;6.89;83.68;100341.72;323664;30;3790;-75
2022/11/28 00:07:46;;;;;;;;;;;;;;;6.89;83.97;100341.72;326724;30;2380;-75
2022/11/28 00:07:57;;;;;;;;;;;;;;;6.88;84.41;100340.00;325066;30;2358;-75
2022/11/28 00:08:07;;;;;;;;;;;;;;;6.88;84.37;100339.13;324702;30;1177;-75
2022/11/28 00:08:17;;;;;;;;;;;;;;;6.88;84.16;100344.34;323669;30;2645;-75
2022/11/28 00:08:27;;;;;;;;;;;;;;;6.88;84.50;100333.94;321279;30;2785;-75
2022/11/28 00:08:38;;;;;;;;;;;;;;;6.87;85.47;100340.88;319982;30;1356;-75
2022/11/28 00:08:48;;;;;;;;;;;;;;;6.87;85.17;100340.88;319895;30;1810;-75
2022/11/28 00:08:58;;;;;;;;;;;;;;;6.87;85.65;100338.28;320773;30;1490;-75
2022/11/28 00:09:08;;;;;;;;;;;;;;;6.87;85.42;100343.47;322288;30;1019;-74
2022/11/28 00:09:19;;;;;;;;;;;;;;;6.87;85.65;100343.47;321927;30;2116;-74
2022/11/28 00:09:29;;;;;;;;;;;;;;;6.85;84.86;100345.25;319429;30;2626;-74
2022/11/28 00:09:39;;;;;;;;;;;;;;;6.84;84.98;100346.13;321027;30;1542;-74
2022/11/28 00:09:51;;;;;;;;;;;;;;;6.83;85.48;100341.78;322354;30;1484;-74
2022/11/28 00:10:02;;;;;;;;;;;;;;;6.85;85.16;100341.78;319829;30;3127;-74
2022/11/28 00:10:12;;;;;;;;;;;;;;;6.84;84.88;100337.44;317182;30;2917;-74
2022/11/28 00:10:22;;;;;;;;;;;;;;;6.85;85.14;100339.16;316187;31;1349;-74
2022/11/28 00:10:37;;;;;;;;;;;;;;;6.86;84.99;100335.69;318158;30;3044;-74
2022/11/28 00:10:47;;;;;;;;;;;;;;;6.86;85.54;100339.16;315242;31;3108;-74
2022/11/28 00:10:57;;;;;;;;;;;;;;;6.87;85.56;100342.63;313150;31;2550;-74
2022/11/28 00:11:08;;;;;;;;;;;;;;;6.87;85.48;100340.88;312048;31;1292;-74
2022/11/28 00:11:18;;;;;;;;;;;;;;;6.86;85.46;100336.56;313764;31;2454;-74
2022/11/28 00:11:29;;;;;;;;;;;;;;;6.87;84.95;100343.47;311954;31;3233;-74
2022/11/28 00:11:39;;;;;;;;;;;;;;;6.89;84.75;100340.84;312167;31;1055;-74
2022/11/28 00:11:49;;;;;;;;;;;;;;;6.89;84.79;100336.50;312066;31;1241;-74
2022/11/28 00:12:00;;;;;;;;;;;;;;;6.90;84.62;100342.56;309977;31;4739;-74
2022/11/28 00:12:10;;;;;;;;;;;;;;;6.89;84.44;100336.50;308876;31;4790;-74
2022/11/28 00:12:20;;;;;;;;;;;;;;;6.90;84.74;100340.84;307750;32;1211;-74
2022/11/28 00:12:30;;;;;;;;;;;;;;;6.90;84.37;100338.22;306812;32;4374;-74
2022/11/28 00:12:41;;;;;;;;;;;;;;;6.91;84.78;100339.94;305116;32;4024;-74
2022/11/28 00:12:51;;;;;;;;;;;;;;;6.92;84.27;100330.41;305612;32;874;-74
2022/11/28 00:13:01;;;;;;;;;;;;;;;6.92;84.75;100335.59;303548;32;4523;-74
2022/11/28 00:13:11;;;;;;;;;;;;;;;6.91;84.63;100333.88;301408;32;3604;-74
2022/11/28 00:13:21;;;;;;;;;;;;;;;6.92;84.80;100346.88;302493;32;932;-74
2022/11/28 00:13:33;;;;;;;;;;;;;;;6.92;85.21;100335.59;299673;32;3915;-75
2022/11/28 00:13:43;;;;;;;;;;;;;;;6.91;84.92;100339.94;299032;32;4690;-75
2022/11/28 00:13:53;;;;;;;;;;;;;;;6.91;84.77;100339.09;300456;32;878;-75
2022/11/28 00:14:04;;;;;;;;;;;;;;;6.91;84.44;100339.09;304301;32;6814;-75
2022/11/28 00:14:14;;;;;;;;;;;;;;;6.91;84.74;100339.09;304406;32;6905;-75
2022/11/28 00:14:24;;;;;;;;;;;;;;;6.89;84.58;100336.50;302438;32;6176;-75
2022/11/28 00:14:34;;;;;;;;;;;;;;;6.91;84.53;100336.50;298347;33;866;-75
2022/11/28 00:14:45;;;;;;;;;;;;;;;6.92;84.90;100338.22;297877;32;6249;-74
2022/11/28 00:14:55;;;;;;;;;;;;;;;6.91;84.32;100337.34;297756;32;5646;-74
2022/11/28 00:15:05;;;;;;;;;;;;;;;6.91;84.43;100339.09;296978;33;1568;-74
2022/11/28 00:15:15;;;;;;;;;;;;;;;6.89;84.53;100336.50;294865;33;6085;-80
2022/11/28 00:15:26;;;;;;;;;;;;;;;6.87;83.86;100332.22;292685;33;5071;-75
2022/11/28 00:15:36;;;;;;;;;;;;;;;6.88;84.49;100340.00;292115;33;1358;-75
2022/11/28 00:15:56;;;;;;;;;;;;;;;6.88;84.62;100334.78;290872;33;5209;-75
2022/11/28 00:16:06;;;;;;;;;;;;;;;6.87;84.12;100338.28;292791;33;5200;-75
2022/11/28 00:16:22;;;;;;;;;;;;;;;6.89;84.27;100341.72;291956;33;8360;-77
2022/11/28 00:16:32;;;;;;;;;;;;;;;6.90;84.18;100339.97;293568;33;9465;-76
2022/11/28 00:16:42;;;;;;;;;;;;;;;6.90;84.39;100343.44;291635;33;8435;-77
2022/11/28 00:16:52;;;;;;;;;;;;;;;6.91;84.55;100339.09;290562;34;817;-78
2022/11/28 00:17:03;;;;;;;;;;;;;;;6.91;84.95;100342.56;288896;34;8073;-76
2022/11/28 00:17:13;;;;;;;;;;;;;;;6.91;85.07;100339.94;285499;34;7842;-76
2022/11/28 00:17:23;;;;;;;;;;;;;;;6.91;84.91;100342.56;284837;34;865;-76
2022/11/28 00:17:35;;;;;;;;;;;;;;;6.91;84.89;100336.50;285020;34;8576;-74
2022/11/28 00:17:45;;;;;;;;;;;;;;;6.92;85.17;100338.22;285745;34;6060;-77
2022/11/28 00:19:46;;;;;;;;;;;;;;;6.92;85.03;100340.81;2501886;27;19922;-76
2022/11/28 00:19:57;;;;;;;;;;;;;;;6.92;84.50;100344.28;354670;27;1292;-76
2022/11/28 00:20:08;;;;;;;;;;;;;;;6.93;84.73;100343.34;351660;28;1537;-76
2022/11/28 00:20:18;;;;;;;;;;;;;;;6.93;84.69;100339.94;350516;28;1302;-77
2022/11/28 00:20:29;;;;;;;;;;;;;;;6.93;84.81;100345.13;350634;28;935;-76
2022/11/28 00:20:39;;;;;;;;;;;;;;;6.93;84.74;100345.13;347710;28;1374;-75
2022/11/28 00:20:49;;;;;;;;;;;;;;;6.93;84.79;100342.53;349067;28;1189;-75
2022/11/28 00:21:00;;;;;;;;;;;;;;;6.91;84.48;100339.94;350678;28;852;-75
2022/11/28 00:21:11;;;;;;;;;;;;;;;6.93;84.50;100337.31;349001;28;1137;-75
2022/11/28 00:21:21;;;;;;;;;;;;;;;6.92;84.68;100344.28;347706;28;868;-74
2022/11/28 00:21:31;;;;;;;;;;;;;;;6.93;84.84;100340.75;347773;28;1372;-74
2022/11/28 00:21:42;;;;;;;;;;;;;;;6.92;84.69;100336.47;346417;28;1245;-76
2022/11/28 00:21:52;;;;;;;;;;;;;;;6.94;84.89;100344.22;345292;28;857;-76
2022/11/28 00:22:02;;;;;;;;;;;;;;;6.94;84.90;100339.00;347831;28;1326;-76
2022/11/28 00:22:12;;;;;;;;;;;;;;;6.94;84.53;100334.66;348060;28;827;-75
2022/11/28 00:22:23;;;;;;;;;;;;;;;6.95;84.70;100339.00;349143;28;784;-75
2022/11/28 00:22:33;;;;;;;;;;;;;;;6.95;84.74;100336.38;350521;28;1699;-75
2022/11/28 00:22:43;;;;;;;;;;;;;;;6.96;84.39;100343.31;349159;28;1243;-76
2022/11/28 00:22:53;;;;;;;;;;;;;;;6.96;84.31;100338.13;347825;28;1231;-76
2022/11/28 00:23:03;;;;;;;;;;;;;;;6.95;84.69;100341.59;347928;28;847;-76
2022/11/28 00:23:14;;;;;;;;;;;;;;;6.96;84.59;100338.13;347956;28;792;-76
2022/11/28 00:23:24;;;;;;;;;;;;;;;6.96;84.36;100338.13;346761;28;1412;-76
2022/11/28 00:23:34;;;;;;;;;;;;;;;6.96;84.58;100340.72;347690;28;900;-75
2022/11/28 00:23:45;;;;;;;;;;;;;;;6.97;84.77;100344.19;349117;28;1174;-75
2022/11/28 00:23:56;;;;;;;;;;;;;;;6.96;84.97;100332.91;349155;28;852;-75
2022/11/28 00:24:06;;;;;;;;;;;;;;;6.97;84.75;100337.22;350608;28;931;-75
2022/11/28 00:24:17;;;;;;;;;;;;;;;6.97;84.78;100338.97;349282;28;776;-75
2022/11/28 00:24:27;;;;;;;;;;;;;;;6.98;84.82;100340.69;350953;28;1436;-75
2022/11/28 00:24:41;;;;;;;;;;;;;;;6.98;84.64;100336.34;350516;28;1203;-75
2022/11/28 00:24:51;;;;;;;;;;;;;;;6.97;84.62;100334.63;347849;28;1299;-75
2022/11/28 00:25:01;;;;;;;;;;;;;;;6.98;85.23;100333.75;348909;28;1191;-75
2022/11/28 00:25:11;;;;;;;;;;;;;;;6.97;84.80;100332.03;347072;28;1536;-74
2022/11/28 00:25:22;;;;;;;;;;;;;;;6.98;85.43;100336.34;346282;28;3965;-75
2022/11/28 00:25:32;;;;;;;;;;;;;;;6.98;85.11;100338.94;346822;28;3713;-75
2022/11/28 00:25:42;;;;;;;;;;;;;;;6.97;85.04;100339.84;346640;28;1205;-76
2022/11/28 00:25:58;;;;;;;;;;;;;;;6.97;84.96;100334.63;344871;28;2060;-76
2022/11/28 00:26:10;;;;;;;;;;;;;;;6.97;85.24;100329.44;342381;28;1251;-76
2022/11/28 00:26:27;;;;;;;;;;;;;;;6.98;85.37;100336.34;343838;28;813;-76
2022/11/28 00:26:38;;;;;;;;;;;;;;;6.98;85.88;100335.50;346460;28;1011;-76
2022/11/28 00:26:48;;;;;;;;;;;;;;;6.99;85.56;100334.59;344064;28;1461;-76
2022/11/28 00:26:59;;;;;;;;;;;;;;;6.98;85.84;100333.75;343843;28;813;-76
2022/11/28 00:27:09;;;;;;;;;;;;;;;6.98;85.74;100328.53;344076;28;1200;-76
2022/11/28 00:27:19;;;;;;;;;;;;;;;6.98;85.77;100330.28;342609;28;1106;-76
2022/11/28 00:27:29;;;;;;;;;;;;;;;6.98;86.08;100331.16;343566;28;907;-75
2022/11/28 00:27:40;;;;;;;;;;;;;;;6.98;86.15;100333.75;344183;28;1253;-76
2022/11/28 00:27:50;;;;;;;;;;;;;;;6.98;86.52;100333.75;339722;29;1182;-75
2022/11/28 00:28:00;;;;;;;;;;;;;;;6.98;86.65;100341.56;342192;28;1367;-76
2022/11/28 00:28:10;;;;;;;;;;;;;;;6.97;87.01;100341.56;340854;28;1433;-76
2022/11/28 00:28:20;;;;;;;;;;;;;;;6.97;87.00;100334.63;338414;28;1555;-75
2022/11/28 00:28:31;;;;;;;;;;;;;;;6.97;87.46;100334.63;340080;29;1398;-76
2022/11/28 00:28:41;;;;;;;;;;;;;;;6.96;87.73;100332.91;339475;29;1916;-75
2022/11/28 00:28:51;;;;;;;;;;;;;;;6.96;88.35;100332.03;338406;29;1298;-75
2022/11/28 00:29:02;;;;;;;;;;;;;;;6.96;88.73;100335.50;339747;29;1381;-75
2022/11/28 00:29:12;;;;;;;;;;;;;;;6.96;88.75;100338.13;338428;29;1304;-74
2022/11/28 00:29:22;;;;;;;;;;;;;;;6.96;89.02;100332.03;338069;29;1414;-74
2022/11/28 00:29:32;;;;;;;;;;;;;;;6.95;89.03;100331.19;335905;29;1371;-75
2022/11/28 00:29:42;;;;;;;;;;;;;;;6.94;88.67;100334.66;337461;29;1512;-75
2022/11/28 00:29:54;;;;;;;;;;;;;;;6.94;88.72;100337.28;336286;29;1723;-75
2022/11/28 00:30:04;;;;;;;;;;;;;;;6.94;89.08;100336.41;334478;29;1522;-75
2022/11/28 00:30:14;;;;;;;;;;;;;;;6.92;88.50;100339.06;330779;29;1933;-75
2022/11/28 00:30:25;;;;;;;;;;;;;;;6.88;87.51;100340.00;332591;29;2046;-75
2022/11/28 00:30:35;;;;;;;;;;;;;;;6.87;87.28;100334.81;334678;29;815;-75
2022/11/28 00:30:46;;;;;;;;;;;;;;;6.85;87.50;100334.84;327306;30;548;-75
2022/11/28 00:30:56;;;;;;;;;;;;;;;6.84;87.45;100332.25;324613;30;1605;-75
2022/11/28 00:31:10;;;;;;;;;;;;;;;6.84;87.07;100327.91;322378;30;1310;-75
2022/11/28 00:31:21;;;;;;;;;;;;;;;6.84;87.20;100335.72;323263;30;1515;-74
2022/11/28 00:31:32;;;;;;;;;;;;;;;6.85;87.30;100333.97;321295;30;849;-74
2022/11/28 00:31:43;;;;;;;;;;;;;;;6.86;87.36;100341.75;319631;30;1721;-74
2022/11/28 00:31:53;;;;;;;;;;;;;;;6.86;87.05;100335.69;321587;30;1925;-74
2022/11/28 00:32:04;;;;;;;;;;;;;;;6.86;87.02;100336.56;324673;30;1351;-74
2022/11/28 00:32:14;;;;;;;;;;;;;;;6.87;86.99;100338.28;323202;30;2558;-74
2022/11/28 00:32:24;;;;;;;;;;;;;;;6.87;86.83;100335.66;321524;30;2582;-75
2022/11/28 00:32:34;;;;;;;;;;;;;;;6.88;87.05;100337.38;324846;30;955;-75
2022/11/28 00:32:45;;;;;;;;;;;;;;;6.89;87.25;100341.72;324332;30;2820;-75
2022/11/28 00:32:55;;;;;;;;;;;;;;;6.88;87.03;100340.00;322637;30;2614;-75
2022/11/28 00:33:05;;;;;;;;;;;;;;;6.89;86.64;100336.50;323567;30;1204;-75
2022/11/28 00:33:15;;;;;;;;;;;;;;;6.90;87.14;100338.22;325742;30;1927;-75
2022/11/28 00:33:25;;;;;;;;;;;;;;;6.91;87.01;100334.75;324965;30;1073;-75
2022/11/28 00:33:36;;;;;;;;;;;;;;;6.92;86.60;100333.88;323035;30;1981;-74
2022/11/28 00:33:46;;;;;;;;;;;;;;;6.92;86.83;100340.81;322465;30;797;-76
2022/11/28 00:33:56;;;;;;;;;;;;;;;6.93;86.52;100339.94;318864;30;2561;-75
2022/11/28 00:34:10;;;;;;;;;;;;;;;6.92;86.40;100333.88;318053;30;3097;-75
2022/11/28 00:34:20;;;;;;;;;;;;;;;6.92;86.39;100336.47;320923;30;2389;-76
2022/11/28 00:34:31;;;;;;;;;;;;;;;6.93;86.48;100338.16;315411;31;5000;-75
2022/11/28 00:34:41;;;;;;;;;;;;;;;6.93;86.61;100334.72;316663;30;3622;-75
2022/11/28 00:34:51;;;;;;;;;;;;;;;6.93;86.58;100340.75;317280;30;3525;-75
2022/11/28 00:35:01;;;;;;;;;;;;;;;6.94;86.28;100339.88;317577;31;2137;-75
2022/11/28 00:35:12;;;;;;;;;;;;;;;6.95;86.12;100338.13;314100;31;4564;-75
2022/11/28 00:35:22;;;;;;;;;;;;;;;6.95;86.69;100335.53;312408;31;2408;-75
2022/11/28 00:35:32;;;;;;;;;;;;;;;6.94;86.60;100333.81;315559;30;1383;-75
2022/11/28 00:35:42;;;;;;;;;;;;;;;6.94;86.56;100339.88;313752;31;2064;-76
2022/11/28 00:35:59;;;;;;;;;;;;;;;6.95;86.87;100340.72;313221;31;2810;-76
2022/11/28 00:36:09;;;;;;;;;;;;;;;6.94;86.64;100332.06;311470;31;3782;-76
2022/11/28 00:36:19;;;;;;;;;;;;;;;6.95;87.30;100330.31;308725;32;1093;-76
2022/11/28 00:36:30;;;;;;;;;;;;;;;6.95;87.14;100339.00;308830;31;4307;-75
2022/11/28 00:36:41;;;;;;;;;;;;;;;6.95;87.31;100336.38;310072;31;5150;-76
2022/11/28 00:36:51;;;;;;;;;;;;;;;6.96;87.89;100337.25;309323;31;4754;-76
2022/11/28 00:37:01;;;;;;;;;;;;;;;6.95;87.89;100338.13;308801;31;1344;-76
2022/11/28 00:37:11;;;;;;;;;;;;;;;6.94;87.92;100334.66;306344;32;4835;-76
2022/11/28 00:37:22;;;;;;;;;;;;;;;6.95;87.95;100336.38;305644;31;4725;-76
2022/11/28 00:37:32;;;;;;;;;;;;;;;6.95;87.63;100331.19;307897;31;1309;-76
2022/11/28 00:37:42;;;;;;;;;;;;;;;6.95;88.31;100328.59;306976;32;3465;-76
2022/11/28 00:37:52;;;;;;;;;;;;;;;6.96;88.05;100338.13;307188;31;3179;-75
2022/11/28 00:38:03;;;;;;;;;;;;;;;6.96;87.80;100338.13;306658;32;1227;-77
2022/11/28 00:38:13;;;;;;;;;;;;;;;6.96;88.35;100337.25;305866;32;4174;-76
2022/11/28 00:38:23;;;;;;;;;;;;;;;6.96;87.72;100338.13;303350;32;5733;-76
2022/11/28 00:38:33;;;;;;;;;;;;;;;6.96;88.30;100337.25;301372;32;1027;-76
2022/11/28 00:38:43;;;;;;;;;;;;;;;6.96;87.78;100338.13;301287;32;5820;-76
2022/11/28 00:38:54;;;;;;;;;;;;;;;6.95;88.00;100341.59;300542;32;7817;-76
2022/11/28 00:39:04;;;;;;;;;;;;;;;6.95;87.84;100341.59;301489;32;893;-76
2022/11/28 00:39:14;;;;;;;;;;;;;;;6.95;88.14;100335.53;299366;32;6855;-75
2022/11/28 00:39:25;;;;;;;;;;;;;;;6.95;88.31;100336.38;300649;32;6586;-75
2022/11/28 00:39:35;;;;;;;;;;;;;;;6.96;88.15;100337.25;301596;32;1179;-75
2022/11/28 00:39:45;;;;;;;;;;;;;;;6.96;88.33;100337.25;295485;32;6673;-76
2022/11/28 00:39:55;;;;;;;;;;;;;;;6.96;88.05;100338.13;293244;33;5185;-76
2022/11/28 00:40:06;;;;;;;;;;;;;;;6.96;88.22;100338.13;293539;33;3710;-76
2022/11/28 00:40:16;;;;;;;;;;;;;;;6.95;88.61;100339.00;293892;33;1225;-76
2022/11/28 00:40:26;;;;;;;;;;;;;;;6.95;88.24;100341.59;291648;33;5864;-76
2022/11/28 00:40:36;;;;;;;;;;;;;;;6.95;88.38;100333.78;291163;33;8096;-76
2022/11/28 00:40:47;;;;;;;;;;;;;;;6.96;88.61;100339.84;291489;34;808;-76
2022/11/28 00:41:00;;;;;;;;;;;;;;;6.95;88.87;100336.38;287376;34;8748;-75
2022/11/28 00:41:14;;;;;;;;;;;;;;;6.94;88.45;100339.88;283615;34;10201;-76
2022/11/28 00:41:25;;;;;;;;;;;;;;;6.94;88.72;100337.28;283413;34;8365;-76
2022/11/28 00:41:36;;;;;;;;;;;;;;;6.94;88.54;100334.66;282719;34;9834;-76
2022/11/28 00:41:46;;;;;;;;;;;;;;;6.94;88.41;100337.28;287644;34;939;-76
2022/11/28 00:41:56;;;;;;;;;;;;;;;6.94;88.52;100334.66;282811;34;9176;-76
2022/11/28 00:42:06;;;;;;;;;;;;;;;6.94;88.78;100339.88;281638;34;7238;-75
2022/11/28 00:42:19;;;;;;;;;;;;;;;6.93;88.47;100338.16;283885;34;857;-75
2022/11/28 00:44:43;;;;;;;;;;;;;;;6.91;90.16;100339.94;2494818;27;19933;-76
2022/11/28 00:44:54;;;;;;;;;;;;;;;6.91;89.96;100334.75;353376;28;1267;-76
2022/11/28 00:45:04;;;;;;;;;;;;;;;6.90;90.35;100335.63;350683;28;1245;-76
2022/11/28 00:45:14;;;;;;;;;;;;;;;6.91;90.32;100334.75;349650;28;1566;-76
2022/11/28 00:45:24;;;;;;;;;;;;;;;6.91;89.71;100332.16;349920;28;1303;-75
2022/11/28 00:45:35;;;;;;;;;;;;;;;6.92;89.87;100335.59;349183;28;926;-75
2022/11/28 00:45:45;;;;;;;;;;;;;;;6.92;89.70;100335.59;350583;28;1288;-75
2022/11/28 00:45:55;;;;;;;;;;;;;;;6.91;89.77;100328.69;350160;28;1924;-75
2022/11/28 00:46:05;;;;;;;;;;;;;;;6.92;89.73;100335.59;349251;28;832;-75
2022/11/28 00:46:16;;;;;;;;;;;;;;;6.92;89.97;100333.88;347797;28;869;-75
2022/11/28 00:46:26;;;;;;;;;;;;;;;6.92;89.86;100331.25;347742;28;816;-75
2022/11/28 00:46:36;;;;;;;;;;;;;;;6.92;90.01;100331.25;347751;28;813;-75
2022/11/28 00:46:47;;;;;;;;;;;;;;;6.91;90.14;100334.75;347976;28;863;-76
2022/11/28 00:46:57;;;;;;;;;;;;;;;6.90;90.56;100330.44;347744;28;1254;-75
2022/11/28 00:47:07;;;;;;;;;;;;;;;6.91;90.34;100328.69;350426;28;1356;-75
2022/11/28 00:47:17;;;;;;;;;;;;;;;6.91;89.79;100328.69;351272;28;1257;-76
2022/11/28 00:47:27;;;;;;;;;;;;;;;6.91;89.88;100324.34;350604;28;1194;-75
2022/11/28 00:47:38;;;;;;;;;;;;;;;6.91;89.97;100326.94;349047;28;1544;-75
2022/11/28 00:47:48;;;;;;;;;;;;;;;6.91;90.42;100326.94;347905;28;797;-75
2022/11/28 00:47:58;;;;;;;;;;;;;;;6.91;89.99;100328.69;349268;28;1320;-75
2022/11/28 00:48:08;;;;;;;;;;;;;;;6.91;89.96;100323.47;350029;28;1370;-75
2022/11/28 00:48:19;;;;;;;;;;;;;;;6.90;90.17;100322.63;350734;28;927;-75
2022/11/28 00:48:30;;;;;;;;;;;;;;;6.91;90.19;100328.69;350657;28;969;-75
2022/11/28 00:48:41;;;;;;;;;;;;;;;6.90;89.92;100325.22;350584;28;1137;-76
2022/11/28 00:48:51;;;;;;;;;;;;;;;6.90;90.22;100322.63;351087;28;1216;-76
2022/11/28 00:49:02;;;;;;;;;;;;;;;6.90;89.91;100327.81;350677;28;816;-74
2022/11/28 00:49:22;;;;;;;;;;;;;;;6.87;89.98;100322.66;349094;28;1230;-75
2022/11/28 00:49:32;;;;;;;;;;;;;;;6.89;89.99;100322.63;347916;28;962;-75
2022/11/28 00:49:42;;;;;;;;;;;;;;;6.88;90.43;100324.38;347771;28;1393;-76
2022/11/28 00:49:52;;;;;;;;;;;;;;;6.88;90.41;100323.53;347754;28;1219;-76
2022/11/28 00:50:03;;;;;;;;;;;;;;;6.88;90.07;100329.59;346549;28;867;-75
2022/11/28 00:50:14;;;;;;;;;;;;;;;6.88;90.40;100324.38;344844;28;1620;-75
2022/11/28 00:50:24;;;;;;;;;;;;;;;6.88;90.70;100323.53;346176;28;1577;-76
2022/11/28 00:50:34;;;;;;;;;;;;;;;6.88;90.68;100329.59;346360;28;1038;-76
2022/11/28 00:50:45;;;;;;;;;;;;;;;6.88;90.46;100324.38;345843;28;1339;-76
2022/11/28 00:50:58;;;;;;;;;;;;;;;6.88;90.31;100326.13;348537;28;1220;-76
2022/11/28 00:51:10;;;;;;;;;;;;;;;6.87;90.57;100325.25;346809;28;1571;-76
2022/11/28 00:51:21;;;;;;;;;;;;;;;6.87;90.28;100327.00;348194;28;1135;-76
2022/11/28 00:51:31;;;;;;;;;;;;;;;6.87;90.49;100325.25;347893;28;812;-77
2022/11/28 00:51:41;;;;;;;;;;;;;;;6.86;91.19;100331.34;344969;28;1270;-76
2022/11/28 00:51:52;;;;;;;;;;;;;;;6.86;91.52;100325.28;345198;28;793;-76
2022/11/28 00:52:02;;;;;;;;;;;;;;;6.86;91.64;100326.16;347329;28;1294;-76
2022/11/28 00:52:12;;;;;;;;;;;;;;;6.85;91.41;100321.81;345220;28;871;-76
2022/11/28 00:52:22;;;;;;;;;;;;;;;6.85;91.17;100329.63;341634;28;988;-76
2022/11/28 00:52:32;;;;;;;;;;;;;;;6.86;91.07;100331.34;342426;28;1349;-76
2022/11/28 00:52:43;;;;;;;;;;;;;;;6.86;91.14;100326.16;341018;29;1410;-75
2022/11/28 00:52:53;;;;;;;;;;;;;;;6.85;91.50;100328.78;340209;28;4249;-75
2022/11/28 00:53:03;;;;;;;;;;;;;;;6.85;91.52;100316.63;341377;28;3548;-74
2022/11/28 00:53:13;;;;;;;;;;;;;;;6.85;91.02;100324.44;343580;28;1339;-76
2022/11/28 00:53:23;;;;;;;;;;;;;;;6.86;91.48;100326.16;341053;28;2010;-76
2022/11/28 00:53:34;;;;;;;;;;;;;;;6.86;91.55;100326.16;340862;28;3457;-76
2022/11/28 00:53:46;;;;;;;;;;;;;;;6.86;91.08;100326.16;339838;29;873;-76
2022/11/28 00:53:57;;;;;;;;;;;;;;;6.87;91.41;100325.25;338363;29;1446;-76
2022/11/28 00:54:08;;;;;;;;;;;;;;;6.86;91.62;100323.53;335118;29;1325;-76
2022/11/28 00:54:18;;;;;;;;;;;;;;;6.87;92.05;100316.59;334258;29;1485;-75
2022/11/28 00:54:28;;;;;;;;;;;;;;;6.86;91.49;100323.53;335055;29;1851;-76
2022/11/28 00:54:38;;;;;;;;;;;;;;;6.86;91.59;100326.16;335919;29;1376;-76
2022/11/28 00:54:48;;;;;;;;;;;;;;;6.86;91.83;100320.94;334698;29;1829;-76
2022/11/28 00:54:59;;;;;;;;;;;;;;;6.87;91.57;100327.00;335987;29;917;-76
2022/11/28 00:55:09;;;;;;;;;;;;;;;6.87;91.94;100325.25;329986;29;1936;-74
2022/11/28 00:55:19;;;;;;;;;;;;;;;6.86;91.76;100326.16;328285;29;2124;-75
2022/11/28 00:55:29;;;;;;;;;;;;;;;6.85;91.67;100324.44;329553;30;800;-77
2022/11/28 00:55:39;;;;;;;;;;;;;;;6.84;92.29;100327.91;329709;29;2093;-76
2022/11/28 00:55:50;;;;;;;;;;;;;;;6.86;92.26;100330.50;329868;29;1564;-76
2022/11/28 00:56:02;;;;;;;;;;;;;;;6.86;91.77;100320.94;332129;29;795;-75
2022/11/28 00:56:13;;;;;;;;;;;;;;;6.86;92.00;100326.16;327857;30;1456;-75
2022/11/28 00:56:27;;;;;;;;;;;;;;;6.86;91.90;100320.94;326880;30;1684;-76
2022/11/28 00:56:37;;;;;;;;;;;;;;;6.86;92.21;100320.94;323738;30;1563;-76
2022/11/28 00:56:48;;;;;;;;;;;;;;;6.86;91.79;100326.16;322040;30;2065;-76
2022/11/28 00:56:58;;;;;;;;;;;;;;;6.86;92.31;100322.69;323586;30;939;-76
2022/11/28 00:57:08;;;;;;;;;;;;;;;6.86;92.18;100322.69;325639;30;3018;-76
2022/11/28 00:57:18;;;;;;;;;;;;;;;6.85;92.09;100319.22;326293;30;2526;-76
2022/11/28 00:57:28;;;;;;;;;;;;;;;6.85;92.52;100324.44;323493;30;1213;-76
2022/11/28 00:57:39;;;;;;;;;;;;;;;6.87;92.77;100320.06;323975;30;2706;-76
2022/11/28 00:57:49;;;;;;;;;;;;;;;6.87;92.49;100322.66;322126;30;2572;-76
2022/11/28 00:57:59;;;;;;;;;;;;;;;6.87;92.63;100320.06;323534;30;1290;-76
2022/11/28 00:58:09;;;;;;;;;;;;;;;6.88;92.72;100319.19;321895;30;1613;-76
2022/11/28 00:58:20;;;;;;;;;;;;;;;6.88;92.45;100315.72;321380;30;1394;-75
2022/11/28 00:58:30;;;;;;;;;;;;;;;6.89;92.71;100320.91;321175;30;992;-75
2022/11/28 00:58:41;;;;;;;;;;;;;;;6.89;92.45;100322.63;322728;30;1736;-75
2022/11/28 00:58:51;;;;;;;;;;;;;;;6.89;92.46;100325.25;321865;30;2663;-76
2022/11/28 00:59:02;;;;;;;;;;;;;;;6.87;92.78;100320.06;320919;30;978;-76
2022/11/28 00:59:13;;;;;;;;;;;;;;;6.88;92.69;100313.13;320070;30;897;-77
2022/11/28 00:59:23;;;;;;;;;;;;;;;6.88;92.99;100324.38;317523;30;3244;-76
2022/11/28 00:59:33;;;;;;;;;;;;;;;6.88;92.90;100324.38;315966;31;3506;-76
2022/11/28 00:59:43;;;;;;;;;;;;;;;6.88;92.45;100315.72;315448;31;850;-76
2022/11/28 00:59:53;;;;;;;;;;;;;;;6.88;92.76;100316.56;312727;31;3449;-76
2022/11/28 01:00:04;;;;;;;;;;;;;;;6.88;92.77;100324.38;311748;31;3334;-74
2022/11/28 01:00:15;;;;;;;;;;;;;;;6.88;92.51;100320.91;310285;31;1533;-75
2022/11/28 01:00:25;;;;;;;;;;;;;;;6.88;92.79;100323.53;310841;31;2256;-76
2022/11/28 01:00:35;;;;;;;;;;;;;;;6.88;92.27;100318.31;311378;31;2489;-77
2022/11/28 01:00:45;;;;;;;;;;;;;;;6.87;92.04;100317.47;310952;31;1213;-76
2022/11/28 01:00:56;;;;;;;;;;;;;;;6.87;92.13;100316.59;314252;31;2873;-76